createdAt,value
2022-08-14T00:00:34.621Z,99473.52
2022-08-14T00:03:43.519Z,99462.92
2022-08-14T00:06:48.876Z,99479.38
2022-08-14T00:10:49.168Z,99477.41
2022-08-14T00:13:08.841Z,99480.76
2022-08-14T00:16:44.269Z,99479.91
2022-08-14T00:19:24.468Z,99479.92
2022-08-14T00:22:57.079Z,99474.59
2022-08-14T00:25:42.408Z,99477.13
2022-08-14T00:28:46.307Z,99470.16
2022-08-14T00:31:53.902Z,99473.23
2022-08-14T00:35:00.561Z,99461.79
2022-08-14T00:38:07.057Z,99470.16
2022-08-14T00:41:14.078Z,99470.72
2022-08-14T00:44:21.536Z,99464.32
2022-08-14T00:47:30.821Z,99471.85
2022-08-14T00:50:37.917Z,99459.31
2022-08-14T00:53:43.825Z,99459.30
2022-08-14T00:56:50.256Z,99456.51
2022-08-14T00:59:56.751Z,99465.98
2022-08-14T01:03:03.277Z,99463.19
2022-08-14T01:06:08.410Z,99463.75
2022-08-14T01:09:15.946Z,99465.72
2022-08-14T01:12:26.979Z,99457.91
2022-08-14T01:15:31.798Z,99455.97
2022-08-14T01:19:01.286Z,99464.61
2022-08-14T01:22:01.406Z,99457.34
2022-08-14T01:25:08.009Z,99463.52
2022-08-14T01:28:46.440Z,99460.47
2022-08-14T01:31:29.255Z,99459.35
2022-08-14T01:35:17.357Z,99460.45
2022-08-14T01:37:44.004Z,99448.47
2022-08-14T01:40:50.207Z,99454.89
2022-08-14T01:44:32.572Z,99447.36
2022-08-14T01:47:22.489Z,99454.88
2022-08-14T01:50:29.569Z,99441.78
2022-08-14T01:53:36.340Z,99441.24
2022-08-14T01:56:46.639Z,99438.98
2022-08-14T01:59:53.625Z,99442.89
2022-08-14T02:02:59.289Z,99448.17
2022-08-14T02:06:32.425Z,99444.55
2022-08-14T02:09:19.204Z,99452.06
2022-08-14T02:12:26.331Z,99448.15
2022-08-14T02:15:31.816Z,99449.53
2022-08-14T02:18:37.525Z,99450.34
2022-08-14T02:21:48.720Z,99457.03
2022-08-14T02:24:52.130Z,99457.86
2022-08-14T02:28:23.723Z,99456.45
2022-08-14T02:31:05.648Z,99460.89
2022-08-14T02:34:26.131Z,99459.78
2022-08-14T02:37:37.455Z,99456.17
2022-08-14T02:40:37.448Z,99457.00
2022-08-14T02:43:48.346Z,99455.34
2022-08-14T02:46:54.744Z,99461.19
2022-08-14T02:50:02.364Z,99458.68
2022-08-14T02:53:08.623Z,99460.36
2022-08-14T02:56:30.480Z,99463.42
2022-08-14T02:59:17.022Z,99469.02
2022-08-14T03:02:49.500Z,99459.52
2022-08-14T03:05:26.133Z,99456.49
2022-08-14T03:08:20.428Z,99453.44
2022-08-14T03:11:17.820Z,99447.86
2022-08-14T03:14:04.976Z,99447.30
2022-08-14T03:16:56.966Z,99455.40
2022-08-14T03:19:43.542Z,99444.25
2022-08-14T03:22:36.687Z,99436.14
2022-08-14T03:25:31.686Z,99441.45
2022-08-14T03:28:39.424Z,99443.98
2022-08-14T03:31:47.547Z,99434.50
2022-08-14T03:34:55.450Z,99426.13
2022-08-14T03:39:12.897Z,99436.18
2022-08-14T03:41:09.013Z,99427.26
2022-08-14T03:45:25.240Z,99423.64
2022-08-14T03:47:28.005Z,99425.84
2022-08-14T03:50:34.970Z,99424.17
2022-08-14T03:53:42.549Z,99422.24
2022-08-14T03:56:51.503Z,99423.33
2022-08-14T03:59:59.561Z,99427.24
2022-08-14T04:03:07.221Z,99429.47
2022-08-14T04:06:06.244Z,99422.00
2022-08-14T04:08:53.447Z,99424.50
2022-08-14T04:11:47.808Z,99421.98
2022-08-14T04:14:37.105Z,99424.76
2022-08-14T04:17:28.612Z,99429.77
2022-08-14T04:20:25.686Z,99431.70
2022-08-14T04:23:18.439Z,99436.16
2022-08-14T04:26:08.516Z,99433.60
2022-08-14T04:29:15.032Z,99426.88
2022-08-14T04:32:57.475Z,99429.31
2022-08-14T04:35:24.508Z,99439.04
2022-08-14T04:38:49.412Z,99442.02
2022-08-14T04:42:14.193Z,99430.47
2022-08-14T04:45:22.254Z,99423.02
2022-08-14T04:48:39.434Z,99436.39
2022-08-14T04:51:46.673Z,99431.31
2022-08-14T04:54:46.024Z,99443.59
2022-08-14T04:57:54.738Z,99419.00
2022-08-14T05:01:01.200Z,99422.32
2022-08-14T05:04:07.123Z,99418.85
2022-08-14T05:07:13.619Z,99418.53
2022-08-14T05:10:22.109Z,99417.86
2022-08-14T05:13:24.719Z,99440.08
2022-08-14T05:16:32.055Z,99430.11
2022-08-14T05:19:44.669Z,99436.69
2022-08-14T05:22:42.049Z,99421.91
2022-08-14T05:25:47.416Z,99425.91
2022-08-14T05:28:56.250Z,99435.29
2022-08-14T05:32:04.335Z,99432.41
2022-08-14T05:35:10.473Z,99443.55
2022-08-14T05:38:31.378Z,99445.93
2022-08-14T05:41:52.640Z,99444.37
2022-08-14T05:44:35.020Z,99450.28
2022-08-14T05:47:42.138Z,99443.59
2022-08-14T05:50:50.333Z,99440.74
2022-08-14T05:54:01.476Z,99447.39
2022-08-14T05:56:57.017Z,99436.36
2022-08-14T05:59:50.555Z,99438.27
2022-08-14T06:02:58.190Z,99434.04
2022-08-14T06:06:08.256Z,99440.22
2022-08-14T06:09:17.372Z,99442.69
2022-08-14T06:12:55.902Z,99438.40
2022-08-14T06:15:32.658Z,99435.77
2022-08-14T06:18:38.005Z,99435.25
2022-08-14T06:21:44.840Z,99435.97
2022-08-14T06:24:51.038Z,99439.31
2022-08-14T06:28:03.849Z,99426.31
2022-08-14T06:31:10.808Z,99429.31
2022-08-14T06:35:03.560Z,99436.78
2022-08-14T06:37:24.879Z,99441.25
2022-08-14T06:40:34.212Z,99440.67
2022-08-14T06:43:45.290Z,99427.18
2022-08-14T06:46:49.428Z,99437.67
2022-08-14T06:49:58.134Z,99439.20
2022-08-14T06:53:03.530Z,99444.08
2022-08-14T06:56:11.405Z,99444.64
2022-08-14T06:59:20.003Z,99443.86
2022-08-14T07:02:43.580Z,99441.41
2022-08-14T07:05:55.650Z,99441.62
2022-08-14T07:08:59.198Z,99438.86
2022-08-14T07:12:07.895Z,99443.25
2022-08-14T07:15:13.855Z,99431.06
2022-08-14T07:18:19.849Z,99445.16
2022-08-14T07:21:26.694Z,99449.09
2022-08-14T07:24:32.740Z,99447.47
2022-08-14T07:27:38.405Z,99447.04
2022-08-14T07:30:50.661Z,99454.52
2022-08-14T07:34:00.358Z,99454.52
2022-08-14T07:37:07.007Z,99464.48
2022-08-14T07:40:12.274Z,99451.36
2022-08-14T07:43:20.362Z,99451.36
2022-08-14T07:46:30.803Z,99441.61
2022-08-14T07:49:36.253Z,99448.59
2022-08-14T07:52:43.588Z,99449.91
2022-08-14T07:56:08.859Z,99456.12
2022-08-14T07:58:58.290Z,99465.80
2022-08-14T08:02:04.425Z,99461.39
2022-08-14T08:05:10.999Z,99441.02
2022-08-14T08:08:26.877Z,99441.02
2022-08-14T08:11:26.596Z,99453.35
2022-08-14T08:14:33.222Z,99450.58
2022-08-14T08:17:42.499Z,99444.69
2022-08-14T08:20:52.143Z,99439.94
2022-08-14T08:23:57.548Z,99432.09
2022-08-14T08:27:03.375Z,99430.61
2022-08-14T08:30:20.217Z,99423.34
2022-08-14T08:33:24.717Z,99433.97
2022-08-14T08:36:31.357Z,99424.21
2022-08-14T08:40:01.120Z,99415.81
2022-08-14T08:42:44.952Z,99416.31
2022-08-14T08:45:51.862Z,99405.84
2022-08-14T08:49:05.889Z,99405.14
2022-08-14T08:52:25.294Z,99411.38
2022-08-14T08:55:24.749Z,99399.12
2022-08-14T08:58:33.007Z,99403.33
2022-08-14T09:01:45.855Z,99405.19
2022-08-14T09:04:57.709Z,99410.66
2022-08-14T09:08:03.565Z,99415.36
2022-08-14T09:11:19.363Z,99418.91
2022-08-14T09:14:16.772Z,99400.13
2022-08-14T09:17:18.219Z,99417.21
2022-08-14T09:20:30.652Z,99407.48
2022-08-14T09:23:35.092Z,99418.02
2022-08-14T09:26:40.382Z,99409.53
2022-08-14T09:29:54.158Z,99364.84
2022-08-14T09:33:22.751Z,99396.20
2022-08-14T09:36:53.359Z,99416.40
2022-08-14T09:40:20.877Z,99403.66
2022-08-14T09:43:44.362Z,99399.80
2022-08-14T09:46:37.980Z,99391.42
2022-08-14T09:49:53.422Z,99404.61
2022-08-14T09:53:18.397Z,99398.80
2022-08-14T09:56:11.546Z,99402.02
2022-08-14T09:59:32.164Z,99397.70
2022-08-14T10:02:45.668Z,99394.22
2022-08-14T10:05:52.241Z,99383.86
2022-08-14T10:09:12.056Z,99400.28
2022-08-14T10:12:18.985Z,99387.67
2022-08-14T10:15:37.470Z,99394.98
2022-08-14T10:18:42.522Z,99396.22
2022-08-14T10:23:13.738Z,99397.55
2022-08-14T10:24:59.978Z,99380.78
2022-08-14T10:28:39.600Z,99390.81
2022-08-14T10:31:40.350Z,99384.66
2022-08-14T10:34:52.480Z,99371.00
2022-08-14T10:38:07.228Z,99379.73
2022-08-14T10:41:31.884Z,99391.44
2022-08-14T10:44:36.403Z,99394.64
2022-08-14T10:48:08.834Z,99385.24
2022-08-14T10:50:59.067Z,99395.43
2022-08-14T10:54:16.531Z,99396.39
2022-08-14T10:57:43.337Z,99392.73
2022-08-14T11:00:49.264Z,99386.80
2022-08-14T11:03:57.744Z,99399.27
2022-08-14T11:07:11.329Z,99397.25
2022-08-14T11:10:22.652Z,99384.13
2022-08-14T11:13:38.391Z,99396.06
2022-08-14T11:16:53.317Z,99397.67
2022-08-14T11:19:53.713Z,99381.95
2022-08-14T11:23:01.778Z,99388.65
2022-08-14T11:26:08.689Z,99384.76
2022-08-14T11:29:16.293Z,99385.58
2022-08-14T11:32:22.705Z,99378.95
2022-08-14T11:35:37.028Z,99373.42
2022-08-14T11:38:38.923Z,99374.24
2022-08-14T11:41:56.028Z,99381.56
2022-08-14T11:44:56.492Z,99378.26
2022-08-14T11:48:12.556Z,99372.13
2022-08-14T11:51:09.821Z,99370.71
2022-08-14T11:54:20.140Z,99369.89
2022-08-14T11:57:30.930Z,99365.73
2022-08-14T12:00:45.979Z,99366.20
2022-08-14T12:03:57.632Z,99359.37
2022-08-14T12:07:09.900Z,99364.33
2022-08-14T12:10:26.299Z,99359.38
2022-08-14T12:13:34.853Z,99360.31
2022-08-14T12:16:42.512Z,99351.81
2022-08-14T12:20:05.095Z,99347.09
2022-08-14T12:23:11.386Z,99350.96
2022-08-14T12:26:39.095Z,99351.08
2022-08-14T12:29:32.203Z,99351.19
2022-08-14T12:32:39.756Z,99351.80
2022-08-14T12:35:58.296Z,99348.97
2022-08-14T12:39:04.274Z,99346.03
2022-08-14T12:42:34.618Z,99345.66
2022-08-14T12:45:26.742Z,99341.16
2022-08-14T12:48:35.612Z,99343.78
2022-08-14T12:51:42.830Z,99333.96
2022-08-14T12:55:01.411Z,99328.66
2022-08-14T12:58:01.978Z,99334.79
2022-08-14T13:01:16.803Z,99328.53
2022-08-14T13:04:28.444Z,99326.62
2022-08-14T13:07:33.406Z,99325.10
2022-08-14T13:10:46.589Z,99325.56
2022-08-14T13:13:47.264Z,99325.70
2022-08-14T13:16:58.482Z,99322.73
2022-08-14T13:20:10.250Z,99321.68
2022-08-14T13:23:14.805Z,99320.14
2022-08-14T13:26:22.375Z,99313.48
2022-08-14T13:29:31.458Z,99320.56
2022-08-14T13:32:39.645Z,99318.09
2022-08-14T13:35:45.386Z,99316.65
2022-08-14T13:38:52.319Z,99313.69
2022-08-14T13:41:59.058Z,99321.00
2022-08-14T13:45:00.468Z,99317.92
2022-08-14T13:48:06.058Z,99322.14
2022-08-14T13:51:11.320Z,99324.51
2022-08-14T13:54:18.866Z,99321.67
2022-08-14T13:57:30.235Z,99323.09
2022-08-14T14:00:52.806Z,99319.06
2022-08-14T14:03:44.357Z,99322.95
2022-08-14T14:06:51.130Z,99314.78
2022-08-14T14:10:01.186Z,99315.83
2022-08-14T14:13:08.320Z,99312.50
2022-08-14T14:16:21.791Z,99322.55
2022-08-14T14:19:22.490Z,99316.46
2022-08-14T14:22:35.755Z,99311.62
2022-08-14T14:25:46.049Z,99311.17
2022-08-14T14:28:45.854Z,99317.89
2022-08-14T14:31:51.228Z,99316.97
2022-08-14T14:34:49.900Z,99312.45
2022-08-14T14:37:57.505Z,99311.39
2022-08-14T14:41:05.718Z,99308.39
2022-08-14T14:44:15.928Z,99309.90
2022-08-14T14:47:24.460Z,99311.30
2022-08-14T14:50:30.676Z,99307.73
2022-08-14T14:53:39.691Z,99308.63
2022-08-14T14:56:49.689Z,99310.39
2022-08-14T14:59:52.955Z,99307.39
2022-08-14T15:03:03.671Z,99313.69
2022-08-14T15:06:10.358Z,99311.86
2022-08-14T15:09:17.883Z,99313.28
2022-08-14T15:12:55.681Z,99310.39
2022-08-14T15:15:32.903Z,99307.37
2022-08-14T15:18:41.927Z,99310.66
2022-08-14T15:21:46.389Z,99310.07
2022-08-14T15:24:53.061Z,99300.22
2022-08-14T15:27:58.725Z,99295.19
2022-08-14T15:30:59.393Z,99297.38
2022-08-14T15:34:43.496Z,99292.52
2022-08-14T15:36:58.235Z,99294.00
2022-08-14T15:39:44.568Z,99293.58
2022-08-14T15:42:45.225Z,99289.36
2022-08-14T15:45:50.774Z,99295.36
2022-08-14T15:48:58.165Z,99288.25
2022-08-14T15:52:06.087Z,99292.67
2022-08-14T15:55:15.061Z,99290.16
2022-08-14T15:58:22.278Z,99287.34
2022-08-14T16:01:52.887Z,99293.33
2022-08-14T16:04:35.832Z,99292.87
2022-08-14T16:07:43.428Z,99288.66
2022-08-14T16:10:53.288Z,99290.91
2022-08-14T16:13:59.587Z,99303.98
2022-08-14T16:17:08.627Z,99312.39
2022-08-14T16:30:49.499Z,99303.60
2022-08-14T16:34:00.015Z,99309.30
2022-08-14T16:36:59.445Z,99320.31
2022-08-14T16:40:05.663Z,99325.34
2022-08-14T16:40:23.868Z,99312.08
2022-08-14T16:43:12.906Z,99322.75
2022-08-14T16:46:00.877Z,99312.70
2022-08-14T16:49:07.414Z,99313.69
2022-08-14T16:52:26.426Z,99323.18
2022-08-14T16:55:30.163Z,99323.45
2022-08-14T16:58:30.960Z,99320.53
2022-08-14T17:01:37.752Z,99318.11
2022-08-14T17:04:45.343Z,99322.39
2022-08-14T17:07:53.312Z,99320.74
2022-08-14T17:11:10.004Z,99321.66
2022-08-14T17:14:10.937Z,99322.87
2022-08-14T17:17:16.365Z,99322.87
2022-08-14T17:20:39.390Z,99317.39
2022-08-14T17:23:34.764Z,99316.62
2022-08-14T17:27:04.139Z,99324.05
2022-08-14T17:30:32.422Z,99336.56
2022-08-14T17:33:27.049Z,99334.43
2022-08-14T17:36:36.611Z,99327.72
2022-08-14T17:39:42.022Z,99330.92
2022-08-14T17:43:06.608Z,99338.05
2022-08-14T17:46:17.229Z,99334.21
2022-08-14T17:49:25.833Z,99346.90
2022-08-14T17:52:40.636Z,99347.03
2022-08-14T17:56:01.718Z,99346.01
2022-08-14T17:58:50.531Z,99347.16
2022-08-14T18:01:56.636Z,99323.50
2022-08-14T18:05:03.248Z,99334.39
2022-08-14T18:08:31.982Z,99339.57
2022-08-14T18:11:19.894Z,99330.03
2022-08-14T18:14:32.047Z,99321.23
2022-08-14T18:17:35.278Z,99330.09
2022-08-14T18:21:23.472Z,99327.16
2022-08-14T18:23:51.681Z,99327.11
2022-08-14T18:27:01.833Z,99338.80
2022-08-14T18:30:32.108Z,99322.88
2022-08-14T18:33:33.160Z,99325.38
2022-08-14T18:37:17.628Z,99325.58
2022-08-14T18:40:38.282Z,99326.08
2022-08-14T18:44:00.821Z,99323.27
2022-08-14T18:47:32.634Z,99319.63
2022-08-14T18:50:41.428Z,99307.56
2022-08-14T18:53:55.751Z,99303.47
2022-08-14T18:57:20.167Z,99313.38
2022-08-14T19:00:51.376Z,99314.82
2022-08-14T19:04:01.815Z,99323.69
2022-08-14T19:07:08.935Z,99311.45
2022-08-14T19:10:22.874Z,99311.78
2022-08-14T19:13:48.205Z,99315.07
2022-08-14T19:16:53.580Z,99319.97
2022-08-14T19:19:53.157Z,99313.63
2022-08-14T19:23:00.772Z,99307.55
2022-08-14T19:26:34.083Z,99299.73
2022-08-14T19:29:41.102Z,99303.88
2022-08-14T19:32:53.029Z,99288.72
2022-08-14T19:36:00.419Z,99293.87
2022-08-14T19:39:13.966Z,99288.36
2022-08-14T19:42:27.872Z,99295.44
2022-08-14T19:45:30.076Z,99294.07
2022-08-14T19:48:37.476Z,99295.22
2022-08-14T19:51:43.897Z,99286.59
2022-08-14T19:54:51.416Z,99291.98
2022-08-14T19:57:58.785Z,99289.23
2022-08-14T20:01:11.503Z,99285.61
2022-08-14T20:04:45.389Z,99294.59
2022-08-14T20:07:58.863Z,99287.62
2022-08-14T20:11:05.638Z,99280.98
2022-08-14T20:13:54.151Z,99278.57
2022-08-14T20:17:06.726Z,99280.07
2022-08-14T20:20:13.364Z,99278.77
2022-08-14T20:23:37.875Z,99275.48
2022-08-14T20:26:39.217Z,99281.50
2022-08-14T20:29:46.945Z,99277.99
2022-08-14T20:33:07.515Z,99273.78
2022-08-14T20:36:14.031Z,99273.56
2022-08-14T20:39:24.913Z,99270.34
2022-08-14T20:42:52.735Z,99277.69
2022-08-14T20:46:05.462Z,99262.30
2022-08-14T20:49:25.465Z,99262.30
2022-08-14T20:52:31.654Z,99267.62
2022-08-14T20:55:41.805Z,99262.09
2022-08-14T20:58:54.713Z,99264.10
2022-08-14T21:02:28.747Z,99261.61
2022-08-14T21:05:19.371Z,99265.59
2022-08-14T21:08:25.764Z,99266.50
2022-08-14T21:11:35.044Z,99250.80
2022-08-14T21:14:46.508Z,99256.13
2022-08-14T21:17:48.474Z,99255.02
2022-08-14T21:20:55.651Z,99250.23
2022-08-14T21:24:07.985Z,99250.52
2022-08-14T21:27:20.133Z,99239.28
2022-08-14T21:30:21.295Z,99242.25
2022-08-14T21:33:29.731Z,99239.48
2022-08-14T21:36:37.195Z,99240.88
2022-08-14T21:39:43.648Z,99233.10
2022-08-14T21:42:48.998Z,99224.21
2022-08-14T21:45:55.843Z,99220.61
2022-08-14T21:49:01.335Z,99213.43
2022-08-14T21:52:49.408Z,99226.66
2022-08-14T21:55:24.692Z,99214.94
2022-08-14T21:58:53.259Z,99212.16
2022-08-14T22:01:59.410Z,99213.02
2022-08-14T22:04:49.985Z,99218.39
2022-08-14T22:07:49.657Z,99217.08
2022-08-14T22:11:00.237Z,99209.55
2022-08-14T22:14:26.228Z,99214.34
2022-08-14T22:17:16.196Z,99213.02
2022-08-14T22:20:22.820Z,99210.04
2022-08-14T22:23:28.415Z,99207.03
2022-08-14T22:26:35.392Z,99204.56
2022-08-14T22:29:44.241Z,99204.61
2022-08-14T22:32:57.394Z,99199.33
2022-08-14T22:35:58.799Z,99208.05
2022-08-14T22:39:04.480Z,99198.00
2022-08-14T22:42:21.148Z,99196.93
2022-08-14T22:45:21.719Z,99193.02
2022-08-14T22:48:29.481Z,99186.59
2022-08-14T22:51:40.642Z,99192.19
2022-08-14T22:54:52.520Z,99191.36
2022-08-14T22:57:49.916Z,99188.61
2022-08-14T23:00:55.667Z,99186.97
2022-08-14T23:04:01.379Z,99183.59
2022-08-14T23:07:22.099Z,99189.72
2022-08-14T23:10:33.411Z,99187.75
2022-08-14T23:13:30.724Z,99183.86
2022-08-14T23:16:35.696Z,99179.64
2022-08-14T23:19:41.579Z,99182.46
2022-08-14T23:22:48.347Z,99178.89
2022-08-14T23:25:59.892Z,99180.94
2022-08-14T23:29:03.605Z,99174.78
2022-08-14T23:32:15.690Z,99173.71
2022-08-14T23:35:20.907Z,99172.95
2022-08-14T23:38:30.592Z,99179.39
2022-08-14T23:41:45.874Z,99179.15
2022-08-14T23:44:45.830Z,99194.86
2022-08-14T23:47:51.888Z,99184.84
2022-08-14T23:50:57.450Z,99184.34
2022-08-14T23:54:06.276Z,99183.30
2022-08-14T23:57:13.601Z,99170.16
